createdAt,value
2018-03-20T00:01:18.294Z,2.55
2018-03-20T00:03:44.031Z,2.59
2018-03-20T00:06:09.755Z,2.63
2018-03-20T00:08:35.491Z,2.59
2018-03-20T00:11:01.226Z,2.70
2018-03-20T00:13:26.934Z,2.78
2018-03-20T00:15:52.658Z,2.79
2018-03-20T00:18:18.374Z,2.80
2018-03-20T00:20:44.110Z,2.82
2018-03-20T00:23:09.840Z,2.80
2018-03-20T00:25:35.574Z,2.76
2018-03-20T00:28:01.303Z,2.80
2018-03-20T00:30:27.036Z,2.74
2018-03-20T00:32:52.774Z,2.74
2018-03-20T00:35:18.499Z,2.76
2018-03-20T00:37:44.238Z,2.80
2018-03-20T00:40:09.974Z,2.80
2018-03-20T00:42:35.702Z,2.80
2018-03-20T00:45:01.451Z,2.81
2018-03-20T00:47:27.189Z,2.83
2018-03-20T00:49:52.919Z,2.83
2018-03-20T00:52:18.658Z,2.87
2018-03-20T00:54:44.392Z,2.87
2018-03-20T00:57:10.142Z,2.88
2018-03-20T00:59:35.858Z,2.92
2018-03-20T01:02:01.601Z,2.91
2018-03-20T01:04:27.330Z,2.93
2018-03-20T01:06:53.067Z,2.93
2018-03-20T01:09:18.794Z,2.91
2018-03-20T01:11:44.530Z,2.93
2018-03-20T01:14:10.262Z,2.92
2018-03-20T01:16:36.017Z,2.91
2018-03-20T01:19:01.751Z,2.87
2018-03-20T01:21:27.502Z,2.81
2018-03-20T01:23:53.242Z,2.78
2018-03-20T01:26:18.967Z,2.76
2018-03-20T01:28:44.698Z,2.76
2018-03-20T01:31:10.432Z,2.74
2018-03-20T01:33:36.182Z,2.74
2018-03-20T01:36:01.910Z,2.71
2018-03-20T01:38:27.642Z,2.66
2018-03-20T01:40:53.374Z,2.65
2018-03-20T01:43:19.115Z,2.65
2018-03-20T01:45:44.841Z,2.64
2018-03-20T01:48:10.587Z,2.64
2018-03-20T01:50:36.319Z,2.60
2018-03-20T01:53:14.543Z,2.60
2018-03-20T01:55:40.254Z,2.58
2018-03-20T01:58:05.992Z,2.57
2018-03-20T02:00:31.714Z,2.60
2018-03-20T02:02:57.450Z,2.57
2018-03-20T02:05:23.170Z,2.58
2018-03-20T02:07:48.903Z,2.57
2018-03-20T02:10:14.643Z,2.56
2018-03-20T02:12:40.383Z,2.55
2018-03-20T02:15:06.115Z,2.55
2018-03-20T02:17:31.849Z,2.57
2018-03-20T02:19:57.594Z,2.53
2018-03-20T02:22:23.324Z,2.59
2018-03-20T02:24:49.060Z,2.58
2018-03-20T02:27:14.794Z,2.55
2018-03-20T02:29:40.530Z,2.57
2018-03-20T02:32:06.254Z,2.57
2018-03-20T02:34:31.990Z,2.51
2018-03-20T02:36:57.731Z,2.38
2018-03-20T02:39:23.465Z,2.20
2018-03-20T02:41:49.183Z,2.16
2018-03-20T02:44:14.928Z,2.13
2018-03-20T02:46:40.707Z,2.12
2018-03-20T02:49:06.441Z,2.19
2018-03-20T02:51:32.173Z,2.21
2018-03-20T02:53:57.904Z,2.15
2018-03-20T02:56:23.647Z,2.14
2018-03-20T02:58:49.366Z,2.14
2018-03-20T03:01:15.108Z,2.11
2018-03-20T03:03:40.856Z,2.10
2018-03-20T03:06:06.603Z,2.12
2018-03-20T03:08:32.339Z,2.14
2018-03-20T03:10:58.084Z,2.13
2018-03-20T03:13:23.843Z,2.12
2018-03-20T03:15:49.586Z,2.10
2018-03-20T03:18:15.333Z,2.08
2018-03-20T03:20:41.072Z,2.04
2018-03-20T03:23:06.806Z,2.01
2018-03-20T03:25:32.546Z,2.00
2018-03-20T03:27:58.263Z,1.95
2018-03-20T03:30:23.985Z,1.93
2018-03-20T03:32:49.715Z,1.91
2018-03-20T03:35:15.458Z,1.94
2018-03-20T03:37:41.174Z,1.89
2018-03-20T03:40:06.914Z,1.89
2018-03-20T03:42:32.630Z,1.89
2018-03-20T03:44:58.350Z,1.90
2018-03-20T03:47:24.102Z,1.87
2018-03-20T03:49:49.821Z,1.84
2018-03-20T03:52:15.561Z,1.84
2018-03-20T03:54:41.295Z,1.82
2018-03-20T03:57:07.029Z,1.79
2018-03-20T03:59:32.754Z,1.79
2018-03-20T04:01:58.490Z,1.79
2018-03-20T04:04:24.219Z,1.77
2018-03-20T04:06:49.955Z,1.76
2018-03-20T04:09:15.671Z,1.75
2018-03-20T04:11:41.405Z,1.74
2018-03-20T04:14:07.122Z,1.69
2018-03-20T04:16:32.857Z,1.67
2018-03-20T04:18:58.581Z,1.64
2018-03-20T04:21:24.326Z,1.60
2018-03-20T04:23:50.066Z,1.53
2018-03-20T04:26:15.810Z,1.52
2018-03-20T04:28:41.538Z,1.48
2018-03-20T04:31:07.262Z,1.53
2018-03-20T04:33:32.986Z,1.48
2018-03-20T04:35:58.710Z,1.48
2018-03-20T04:38:24.445Z,1.54
2018-03-20T04:40:50.169Z,1.52
2018-03-20T04:43:15.907Z,1.53
2018-03-20T04:45:41.626Z,1.51
2018-03-20T04:48:07.366Z,1.43
2018-03-20T04:50:33.085Z,1.43
2018-03-20T04:52:58.815Z,1.42
2018-03-20T04:55:24.538Z,1.43
2018-03-20T04:57:50.262Z,1.39
2018-03-20T05:00:16.008Z,1.42
2018-03-20T05:02:41.743Z,1.33
2018-03-20T05:05:07.463Z,1.34
2018-03-20T05:07:33.210Z,1.34
2018-03-20T05:09:58.934Z,1.40
2018-03-20T05:12:24.664Z,1.45
2018-03-20T05:14:50.403Z,1.43
2018-03-20T05:17:16.162Z,1.44
2018-03-20T05:19:48.032Z,1.47
2018-03-20T05:25:12.317Z,1.44
2018-03-20T05:27:38.042Z,1.43
2018-03-20T05:30:03.774Z,1.44
2018-03-20T05:32:29.508Z,1.45
2018-03-20T05:34:55.242Z,1.44
2018-03-20T05:37:20.965Z,1.45
2018-03-20T05:39:46.694Z,1.43
2018-03-20T05:42:12.414Z,1.46
2018-03-20T05:44:38.171Z,1.40
2018-03-20T05:50:14.794Z,1.32
2018-03-20T05:52:40.509Z,1.20
2018-03-20T05:55:06.254Z,1.12
2018-03-20T05:57:31.961Z,1.04
2018-03-20T05:59:57.694Z,0.98
2018-03-20T06:02:23.409Z,0.92
2018-03-20T06:04:49.135Z,0.93
2018-03-20T06:07:14.850Z,1.01
2018-03-20T06:09:40.573Z,1.03
2018-03-20T06:12:06.285Z,1.04
2018-03-20T06:14:32.015Z,1.06
2018-03-20T06:16:57.745Z,1.10
2018-03-20T06:19:23.466Z,1.17
2018-03-20T06:21:49.183Z,1.15
2018-03-20T06:24:14.901Z,1.21
2018-03-20T06:26:40.622Z,1.23
2018-03-20T06:29:06.338Z,1.27
2018-03-20T06:31:32.059Z,1.28
2018-03-20T06:33:57.766Z,1.32
2018-03-20T06:36:23.481Z,1.40
2018-03-20T06:38:49.231Z,1.43
2018-03-20T06:41:14.918Z,1.45
2018-03-20T06:43:40.638Z,1.55
2018-03-20T06:46:06.358Z,1.60
2018-03-20T06:48:32.099Z,1.65
2018-03-20T06:50:57.866Z,1.71
2018-03-20T06:53:23.562Z,1.72
2018-03-20T06:55:49.302Z,1.79
2018-03-20T06:58:15.026Z,1.83
2018-03-20T07:00:40.753Z,1.91
2018-03-20T07:03:06.478Z,1.98
2018-03-20T07:05:32.211Z,2.02
2018-03-20T07:07:57.959Z,2.05
2018-03-20T07:10:23.698Z,2.10
2018-03-20T07:12:49.430Z,2.16
2018-03-20T07:15:15.162Z,2.20
2018-03-20T07:17:40.905Z,2.32
2018-03-20T07:20:06.646Z,2.32
2018-03-20T07:22:32.388Z,2.33
2018-03-20T07:24:58.102Z,2.44
2018-03-20T07:27:23.842Z,2.45
2018-03-20T07:29:49.569Z,2.49
2018-03-20T07:32:15.309Z,2.52
2018-03-20T07:34:41.040Z,2.70
2018-03-20T07:37:06.777Z,2.62
2018-03-20T07:39:32.498Z,2.66
2018-03-20T07:41:58.231Z,2.86
2018-03-20T07:44:23.949Z,2.94
2018-03-20T07:46:49.678Z,2.81
2018-03-20T07:49:15.704Z,2.82
2018-03-20T07:51:41.442Z,3.07
2018-03-20T07:54:07.152Z,3.26
2018-03-20T07:56:32.857Z,3.18
2018-03-20T07:58:58.574Z,3.23
2018-03-20T08:01:24.293Z,3.26
2018-03-20T08:03:50.262Z,3.18
2018-03-20T08:06:15.994Z,3.37
2018-03-20T08:08:41.710Z,3.35
2018-03-20T08:11:07.430Z,3.51
2018-03-20T08:13:33.186Z,3.65
2018-03-20T08:15:58.905Z,3.49
2018-03-20T08:18:25.947Z,3.71
2018-03-20T08:20:51.676Z,3.70
2018-03-20T08:23:17.828Z,3.77
2018-03-20T08:25:43.577Z,3.71
2018-03-20T08:28:09.298Z,3.79
2018-03-20T08:30:35.017Z,3.63
2018-03-20T08:33:00.729Z,3.80
2018-03-20T08:35:26.446Z,3.88
2018-03-20T08:37:52.162Z,3.65
2018-03-20T08:40:17.869Z,3.72
2018-03-20T08:42:43.586Z,3.90
2018-03-20T08:45:09.301Z,4.07
2018-03-20T08:47:35.029Z,4.01
2018-03-20T08:50:00.816Z,3.92
2018-03-20T08:52:26.506Z,4.34
2018-03-20T08:54:52.234Z,4.17
2018-03-20T08:57:17.950Z,4.21
2018-03-20T08:59:43.698Z,4.28
2018-03-20T09:02:09.426Z,4.80
2018-03-20T09:04:35.152Z,4.43
2018-03-20T09:07:00.875Z,4.23
2018-03-20T09:09:26.606Z,4.36
2018-03-20T09:11:52.330Z,4.13
2018-03-20T09:14:18.075Z,4.39
2018-03-20T09:16:43.827Z,4.40
2018-03-20T09:19:09.569Z,4.77
2018-03-20T09:21:35.303Z,5.00
2018-03-20T09:24:01.045Z,4.45
2018-03-20T09:26:26.786Z,4.24
2018-03-20T09:28:52.521Z,4.40
2018-03-20T09:31:18.242Z,4.26
2018-03-20T09:33:43.966Z,4.50
2018-03-20T09:36:09.697Z,4.63
2018-03-20T09:38:35.438Z,5.06
2018-03-20T09:41:01.213Z,5.04
2018-03-20T09:43:26.930Z,4.97
2018-03-20T09:45:52.633Z,4.71
2018-03-20T09:48:18.369Z,4.62
2018-03-20T09:50:44.105Z,4.79
2018-03-20T09:53:09.812Z,4.97
2018-03-20T09:55:35.523Z,4.78
2018-03-20T09:58:01.242Z,4.94
2018-03-20T10:00:26.977Z,4.78
2018-03-20T10:02:52.694Z,4.87
2018-03-20T10:05:18.414Z,4.81
2018-03-20T10:07:44.122Z,5.06
2018-03-20T10:10:09.845Z,5.15
2018-03-20T10:12:35.565Z,4.90
2018-03-20T10:15:01.299Z,5.08
2018-03-20T10:17:27.009Z,5.40
2018-03-20T10:19:52.730Z,5.58
2018-03-20T10:22:18.455Z,5.58
2018-03-20T10:24:44.178Z,5.20
2018-03-20T10:27:09.896Z,5.32
2018-03-20T10:29:35.616Z,5.59
2018-03-20T10:32:01.352Z,5.10
2018-03-20T10:34:27.070Z,5.24
2018-03-20T10:36:52.793Z,5.73
2018-03-20T10:39:18.978Z,5.62
2018-03-20T10:41:45.603Z,5.70
2018-03-20T10:44:11.852Z,5.59
2018-03-20T10:46:38.059Z,5.52
2018-03-20T10:49:03.975Z,5.69
2018-03-20T10:51:29.675Z,5.68
2018-03-20T10:53:55.409Z,5.56
2018-03-20T10:56:21.143Z,5.40
2018-03-20T10:58:46.869Z,5.35
2018-03-20T11:01:18.698Z,5.24
2018-03-20T11:03:44.443Z,5.39
2018-03-20T11:06:10.178Z,5.70
2018-03-20T11:08:35.914Z,5.63
2018-03-20T11:11:01.650Z,5.24
2018-03-20T11:13:27.391Z,5.42
2018-03-20T11:15:53.125Z,5.27
2018-03-20T11:18:18.866Z,5.67
2018-03-20T11:20:44.603Z,5.74
2018-03-20T11:23:10.334Z,5.76
2018-03-20T11:25:36.058Z,5.37
2018-03-20T11:28:01.802Z,5.72
2018-03-20T11:30:27.521Z,5.49
2018-03-20T11:32:53.246Z,5.75
2018-03-20T11:35:18.978Z,5.32
2018-03-20T11:37:44.711Z,5.61
2018-03-20T11:40:10.429Z,5.72
2018-03-20T11:42:36.153Z,5.83
2018-03-20T11:45:01.874Z,5.65
2018-03-20T11:47:27.661Z,5.77
2018-03-20T11:49:53.342Z,5.64
2018-03-20T11:52:19.078Z,5.51
2018-03-20T11:54:44.790Z,5.66
2018-03-20T11:57:10.524Z,6.47
2018-03-20T11:59:36.242Z,6.40
2018-03-20T12:02:01.990Z,5.78
2018-03-20T12:04:27.710Z,5.75
2018-03-20T12:06:53.429Z,5.42
2018-03-20T12:09:31.606Z,5.71
2018-03-20T12:11:57.338Z,5.40
2018-03-20T12:14:23.071Z,5.56
2018-03-20T12:16:48.810Z,5.63
2018-03-20T12:19:14.538Z,5.58
2018-03-20T12:21:40.265Z,5.82
2018-03-20T12:24:05.990Z,5.87
2018-03-20T12:26:31.725Z,5.70
2018-03-20T12:28:57.449Z,5.51
2018-03-20T12:31:23.169Z,5.75
2018-03-20T12:33:48.902Z,5.62
2018-03-20T12:36:14.629Z,5.95
2018-03-20T12:38:40.374Z,6.00
2018-03-20T12:41:06.102Z,5.98
2018-03-20T12:43:31.843Z,6.49
2018-03-20T12:45:57.574Z,6.09
2018-03-20T12:48:23.310Z,5.91
2018-03-20T12:50:49.018Z,5.84
2018-03-20T12:53:14.742Z,6.05
2018-03-20T12:55:40.453Z,5.85
2018-03-20T12:58:06.189Z,5.98
2018-03-20T13:00:31.902Z,5.92
2018-03-20T13:02:57.617Z,5.84
2018-03-20T13:05:23.333Z,6.30
2018-03-20T13:07:49.105Z,6.08
2018-03-20T13:10:14.829Z,6.15
2018-03-20T13:12:40.546Z,6.47
2018-03-20T13:15:06.263Z,5.97
2018-03-20T13:17:31.976Z,5.58
2018-03-20T13:19:57.703Z,5.53
2018-03-20T13:22:23.418Z,5.70
2018-03-20T13:24:49.143Z,5.80
2018-03-20T13:27:14.861Z,5.93
2018-03-20T13:29:40.581Z,6.35
2018-03-20T13:32:06.298Z,6.64
2018-03-20T13:34:32.035Z,6.40
2018-03-20T13:36:57.761Z,6.01
2018-03-20T13:39:23.477Z,6.01
2018-03-20T13:41:49.197Z,5.93
2018-03-20T13:44:14.913Z,6.37
2018-03-20T13:46:40.633Z,5.93
2018-03-20T13:49:06.377Z,5.87
2018-03-20T13:51:32.094Z,5.63
2018-03-20T13:53:57.810Z,5.47
2018-03-20T13:56:23.533Z,5.65
2018-03-20T13:58:49.242Z,5.57
2018-03-20T14:01:16.726Z,5.92
2018-03-20T14:03:42.498Z,5.62
2018-03-20T14:06:08.248Z,5.65
2018-03-20T14:08:34.006Z,5.56
2018-03-20T14:10:59.725Z,5.71
2018-03-20T14:13:25.437Z,5.42
2018-03-20T14:15:51.224Z,5.42
2018-03-20T14:18:16.946Z,5.45
2018-03-20T14:20:42.695Z,5.42
2018-03-20T14:23:08.388Z,5.56
2018-03-20T14:25:34.098Z,5.57
2018-03-20T14:27:59.829Z,5.48
2018-03-20T14:30:25.546Z,5.35
2018-03-20T14:32:51.268Z,5.57
2018-03-20T14:35:16.978Z,5.55
2018-03-20T14:37:42.703Z,5.32
2018-03-20T14:40:08.421Z,5.50
2018-03-20T14:42:34.138Z,5.48
2018-03-20T14:44:59.876Z,5.49
2018-03-20T14:47:25.634Z,5.53
2018-03-20T14:49:51.345Z,5.45
2018-03-20T14:52:17.073Z,5.15
2018-03-20T14:54:42.798Z,5.37
2018-03-20T14:57:08.541Z,5.36
2018-03-20T14:59:34.254Z,5.43
2018-03-20T15:02:00.010Z,5.53
2018-03-20T15:04:25.726Z,5.56
2018-03-20T15:06:51.458Z,5.39
2018-03-20T15:09:17.184Z,5.32
2018-03-20T15:11:42.901Z,5.20
2018-03-20T15:14:08.641Z,5.27
2018-03-20T15:16:34.406Z,5.20
2018-03-20T15:19:00.153Z,5.29
2018-03-20T15:21:25.873Z,5.32
2018-03-20T15:23:51.660Z,5.13
2018-03-20T15:26:17.378Z,5.19
2018-03-20T15:28:43.159Z,5.15
2018-03-20T15:31:08.862Z,5.21
2018-03-20T15:33:34.591Z,5.14
2018-03-20T15:36:00.368Z,5.07
2018-03-20T15:38:26.106Z,4.99
2018-03-20T15:40:51.825Z,4.97
2018-03-20T15:43:17.569Z,5.00
2018-03-20T15:45:43.291Z,5.07
2018-03-20T15:48:09.030Z,4.96
2018-03-20T15:50:34.761Z,5.00
2018-03-20T15:53:00.499Z,4.96
2018-03-20T15:55:26.229Z,4.84
2018-03-20T15:57:51.957Z,5.04
2018-03-20T16:00:17.682Z,5.13
2018-03-20T16:02:43.409Z,5.14
2018-03-20T16:05:09.149Z,4.95
2018-03-20T16:07:34.874Z,4.82
2018-03-20T16:10:00.602Z,4.81
2018-03-20T16:12:26.317Z,4.88
2018-03-20T16:14:52.050Z,4.82
2018-03-20T16:17:17.787Z,4.81
2018-03-20T16:19:43.523Z,4.83
2018-03-20T16:22:09.267Z,4.72
2018-03-20T16:24:34.998Z,4.70
2018-03-20T16:27:00.727Z,4.67
2018-03-20T16:29:26.522Z,4.63
2018-03-20T16:31:52.292Z,4.64
2018-03-20T16:34:18.058Z,4.65
2018-03-20T16:36:43.794Z,4.62
2018-03-20T16:39:09.501Z,4.61
2018-03-20T16:41:35.234Z,4.57
2018-03-20T16:44:00.965Z,4.65
2018-03-20T16:46:26.741Z,4.73
2018-03-20T16:48:52.487Z,4.56
2018-03-20T16:51:18.214Z,4.63
2018-03-20T16:53:43.950Z,4.53
2018-03-20T16:56:09.693Z,4.49
2018-03-20T16:58:35.409Z,4.44
2018-03-20T17:01:01.134Z,4.45
2018-03-20T17:03:26.861Z,4.34
2018-03-20T17:05:52.595Z,4.28
2018-03-20T17:08:18.322Z,4.26
2018-03-20T17:10:44.065Z,4.23
2018-03-20T17:13:09.795Z,4.17
2018-03-20T17:15:35.521Z,4.14
2018-03-20T17:18:01.238Z,4.03
2018-03-20T17:20:26.965Z,4.04
2018-03-20T17:22:52.689Z,3.94
2018-03-20T17:25:18.426Z,3.73
2018-03-20T17:27:44.143Z,3.72
2018-03-20T17:30:09.875Z,3.58
2018-03-20T17:32:35.594Z,3.43
2018-03-20T17:35:01.301Z,3.39
2018-03-20T17:37:27.050Z,3.31
2018-03-20T17:39:52.822Z,3.37
2018-03-20T17:42:18.499Z,3.27
2018-03-20T17:44:44.221Z,3.09
2018-03-20T17:47:09.988Z,3.15
2018-03-20T17:49:35.737Z,3.20
2018-03-20T17:52:01.493Z,3.09
2018-03-20T17:54:27.214Z,3.05
2018-03-20T17:56:52.942Z,3.01
2018-03-20T17:59:18.694Z,3.01
2018-03-20T18:01:44.442Z,2.99
2018-03-20T18:04:10.178Z,3.10
2018-03-20T18:06:35.922Z,3.17
2018-03-20T18:09:01.754Z,3.20
2018-03-20T18:11:27.469Z,3.05
2018-03-20T18:13:53.216Z,3.09
2018-03-20T18:16:18.941Z,3.13
2018-03-20T18:18:44.669Z,3.06
2018-03-20T18:21:10.387Z,3.01
2018-03-20T18:23:36.121Z,3.04
2018-03-20T18:26:01.837Z,2.94
2018-03-20T18:28:27.585Z,2.91
2018-03-20T18:30:53.319Z,2.78
2018-03-20T18:33:19.045Z,2.68
2018-03-20T18:35:44.771Z,2.30
2018-03-20T18:38:10.502Z,2.07
2018-03-20T18:40:36.231Z,1.98
2018-03-20T18:43:02.006Z,1.78
2018-03-20T18:45:27.741Z,1.73
2018-03-20T18:47:53.463Z,1.58
2018-03-20T18:50:19.195Z,1.42
2018-03-20T18:52:44.918Z,1.41
2018-03-20T18:55:10.653Z,1.41
2018-03-20T18:57:36.389Z,1.32
2018-03-20T19:00:02.113Z,1.19
2018-03-20T19:02:27.818Z,1.15
2018-03-20T19:04:53.534Z,1.20
2018-03-20T19:07:19.259Z,1.21
2018-03-20T19:09:44.995Z,1.11
2018-03-20T19:12:10.714Z,0.98
2018-03-20T19:14:36.513Z,1.03
2018-03-20T19:17:02.209Z,0.92
2018-03-20T19:19:27.941Z,0.84
2018-03-20T19:21:53.668Z,0.77
2018-03-20T19:24:19.398Z,0.77
2018-03-20T19:26:45.102Z,0.76
2018-03-20T19:29:10.817Z,0.74
2018-03-20T19:31:36.546Z,0.65
2018-03-20T19:34:02.262Z,0.69
2018-03-20T19:36:27.981Z,0.79
2018-03-20T19:38:53.690Z,0.89
2018-03-20T19:41:19.433Z,0.90
2018-03-20T19:43:45.142Z,1.13
2018-03-20T19:46:10.868Z,0.89
2018-03-20T19:48:36.601Z,0.80
2018-03-20T19:51:02.360Z,0.79
2018-03-20T19:53:28.086Z,0.72
2018-03-20T19:55:53.821Z,0.63
2018-03-20T19:58:19.562Z,0.75
2018-03-20T20:00:45.289Z,0.59
2018-03-20T20:03:11.019Z,0.46
2018-03-20T20:05:36.757Z,0.42
2018-03-20T20:08:02.477Z,0.27
2018-03-20T20:10:28.238Z,0.27
2018-03-20T20:12:53.937Z,0.26
2018-03-20T20:15:19.656Z,0.18
2018-03-20T20:17:45.438Z,0.15
2018-03-20T20:20:11.206Z,0.10
2018-03-20T20:22:36.946Z,-0.01
2018-03-20T20:25:02.686Z,-0.14
2018-03-20T20:27:28.432Z,-0.12
2018-03-20T20:29:54.162Z,-0.17
2018-03-20T20:32:19.898Z,-0.16
2018-03-20T20:34:45.621Z,-0.07
2018-03-20T20:37:11.365Z,-0.11
2018-03-20T20:39:37.098Z,-0.22
2018-03-20T20:42:02.838Z,-0.17
2018-03-20T20:44:28.558Z,-0.29
2018-03-20T20:46:54.295Z,-0.43
2018-03-20T20:49:20.018Z,-0.38
2018-03-20T20:51:45.757Z,-0.38
2018-03-20T20:54:11.467Z,-0.42
2018-03-20T20:56:37.203Z,-0.59
2018-03-20T20:59:02.938Z,-0.69
2018-03-20T21:01:28.654Z,-0.77
2018-03-20T21:03:54.369Z,-0.69
2018-03-20T21:06:20.098Z,-0.78
2018-03-20T21:08:45.814Z,-0.75
2018-03-20T21:11:11.537Z,-0.86
2018-03-20T21:13:37.249Z,-0.86
2018-03-20T21:16:02.973Z,-0.97
2018-03-20T21:18:28.695Z,-1.04
2018-03-20T21:20:54.422Z,-0.87
2018-03-20T21:23:20.142Z,-0.75
2018-03-20T21:25:45.846Z,-0.72
2018-03-20T21:28:11.652Z,-0.88
2018-03-20T21:30:37.375Z,-1.12
2018-03-20T21:33:03.098Z,-1.17
2018-03-20T21:35:28.813Z,-1.22
2018-03-20T21:37:54.537Z,-1.28
2018-03-20T21:40:20.254Z,-1.08
2018-03-20T21:42:45.978Z,-0.96
2018-03-20T21:45:11.697Z,-0.95
2018-03-20T21:47:37.440Z,-0.99
2018-03-20T21:50:03.169Z,-0.97
2018-03-20T21:52:28.896Z,-0.99
2018-03-20T21:54:54.637Z,-1.04
2018-03-20T21:57:20.374Z,-1.06
2018-03-20T21:59:46.104Z,-1.07
2018-03-20T22:02:11.834Z,-1.15
2018-03-20T22:04:37.561Z,-1.16
2018-03-20T22:07:03.301Z,-1.23
2018-03-20T22:09:29.030Z,-1.23
2018-03-20T22:11:54.757Z,-1.35
2018-03-20T22:14:20.488Z,-1.47
2018-03-20T22:16:46.220Z,-1.41
2018-03-20T22:19:11.943Z,-1.30
2018-03-20T22:21:37.670Z,-1.25
2018-03-20T22:24:03.419Z,-1.26
2018-03-20T22:26:29.145Z,-1.29
2018-03-20T22:28:54.875Z,-1.50
2018-03-20T22:31:20.594Z,-1.63
2018-03-20T22:33:46.321Z,-1.67
2018-03-20T22:36:12.038Z,-1.63
2018-03-20T22:38:37.777Z,-1.51
2018-03-20T22:41:03.522Z,-1.46
2018-03-20T22:43:29.270Z,-1.44
2018-03-20T22:45:55.006Z,-1.44
2018-03-20T22:48:20.758Z,-1.61
2018-03-20T22:50:46.481Z,-1.84
2018-03-20T22:53:12.214Z,-1.93
2018-03-20T22:55:37.945Z,-1.80
2018-03-20T22:58:03.668Z,-1.73
2018-03-20T23:00:31.287Z,-1.88
2018-03-20T23:02:57.017Z,-1.76
2018-03-20T23:05:22.741Z,-1.68
2018-03-20T23:07:48.475Z,-1.69
2018-03-20T23:10:14.218Z,-1.91
2018-03-20T23:12:39.942Z,-2.09
2018-03-20T23:15:05.677Z,-2.15
2018-03-20T23:17:31.415Z,-2.16
2018-03-20T23:19:57.150Z,-2.11
2018-03-20T23:22:22.880Z,-1.91
2018-03-20T23:24:48.629Z,-1.81
2018-03-20T23:27:14.341Z,-1.83
2018-03-20T23:29:40.080Z,-1.91
2018-03-20T23:32:05.806Z,-1.91
2018-03-20T23:34:31.560Z,-2.07
2018-03-20T23:36:57.291Z,-2.23
2018-03-20T23:39:23.025Z,-2.32
2018-03-20T23:41:48.756Z,-2.29
2018-03-20T23:44:14.481Z,-2.17
2018-03-20T23:46:40.198Z,-2.17
2018-03-20T23:49:12.288Z,-2.22
2018-03-20T23:51:38.022Z,-2.39
2018-03-20T23:54:03.855Z,-2.24
2018-03-20T23:56:29.585Z,-2.33
2018-03-20T23:58:55.307Z,-2.59
